createdAt,value
2022-08-12T00:00:02.646Z,16.58
2022-08-12T00:02:04.249Z,16.56
2022-08-12T00:03:55.817Z,16.61
2022-08-12T00:06:00.493Z,16.61
2022-08-12T00:07:56.396Z,16.60
2022-08-12T00:09:46.626Z,16.59
2022-08-12T00:11:40.262Z,16.57
2022-08-12T00:13:31.051Z,16.56
2022-08-12T00:15:22.182Z,16.54
2022-08-12T00:17:12.548Z,16.51
2022-08-12T00:19:03.192Z,16.49
2022-08-12T00:20:53.521Z,16.48
2022-08-12T00:22:43.746Z,16.51
2022-08-12T00:24:33.872Z,16.49
2022-08-12T00:26:24.659Z,16.45
2022-08-12T00:28:15.136Z,16.38
2022-08-12T00:30:05.499Z,16.37
2022-08-12T00:31:55.861Z,16.39
2022-08-12T00:33:51.723Z,16.41
2022-08-12T00:35:44.385Z,16.42
2022-08-12T00:37:35.053Z,16.41
2022-08-12T00:39:25.423Z,16.38
2022-08-12T00:41:16.385Z,16.35
2022-08-12T00:42:48.193Z,16.31
2022-08-12T00:44:21.580Z,16.28
2022-08-12T00:46:12.756Z,16.24
2022-08-12T00:47:44.613Z,16.22
2022-08-12T00:49:17.113Z,16.18
2022-08-12T00:50:49.039Z,16.19
2022-08-12T04:26:19.930Z,15.59
2022-08-12T04:27:52.131Z,15.63
2022-08-12T04:30:29.243Z,15.66
2022-08-12T04:31:16.377Z,15.73
2022-08-12T04:32:50.308Z,15.77
2022-08-12T04:34:24.000Z,15.81
2022-08-12T04:35:56.637Z,15.85
2022-08-12T04:37:28.644Z,15.89
2022-08-12T04:39:22.672Z,15.97
2022-08-12T04:40:54.689Z,16.05
2022-08-12T04:42:26.617Z,16.08
2022-08-12T04:44:01.936Z,16.13
2022-08-12T04:45:35.063Z,16.20
2022-08-12T04:47:06.989Z,16.28
2022-08-12T04:48:38.895Z,16.31
2022-08-12T04:50:34.112Z,16.41
2022-08-12T04:52:03.922Z,16.48
2022-08-12T04:53:35.877Z,16.53
2022-08-12T04:56:41.682Z,16.70
2022-08-12T04:58:13.870Z,16.82
2022-08-12T04:59:48.911Z,16.96
2022-08-12T05:01:21.339Z,17.08
2022-08-12T05:02:53.274Z,17.20
2022-08-12T05:04:27.768Z,17.31
2022-08-12T05:06:00.018Z,17.41
2022-08-12T05:07:32.977Z,17.45
2022-08-12T05:09:13.337Z,17.54
2022-08-12T05:10:48.757Z,17.65
2022-08-12T05:12:20.781Z,17.77
2022-08-12T05:14:02.294Z,17.84
2022-08-12T05:15:36.069Z,17.93
2022-08-12T05:17:09.895Z,18.06
2022-08-12T05:18:45.809Z,18.14
2022-08-12T05:20:20.257Z,18.19
2022-08-12T05:21:52.149Z,18.29
2022-08-12T05:23:24.292Z,18.40
2022-08-12T05:24:56.377Z,18.51
2022-08-12T05:26:29.744Z,18.61
2022-08-12T05:28:01.750Z,18.73
2022-08-12T05:30:07.471Z,18.80
2022-08-12T05:31:47.282Z,18.93
2022-08-12T05:33:17.630Z,19.01
2022-08-12T05:34:50.369Z,19.10
2022-08-12T05:36:22.318Z,19.20
2022-08-12T05:38:14.522Z,19.29
2022-08-12T05:39:46.671Z,19.38
2022-08-12T05:41:21.938Z,19.47
2022-08-12T05:42:54.087Z,19.55
2022-08-12T05:44:26.359Z,19.64
2022-08-12T05:45:58.426Z,19.75
2022-08-12T05:47:44.831Z,19.88
2022-08-12T05:49:22.515Z,20.02
2022-08-12T05:50:54.485Z,20.15
2022-08-12T05:52:26.423Z,20.28
2022-08-12T05:53:59.145Z,20.41
2022-08-12T05:55:32.402Z,20.54
2022-08-12T05:57:04.426Z,20.66
2022-08-12T05:58:36.346Z,20.78
2022-08-12T06:00:08.513Z,20.91
2022-08-12T06:02:10.391Z,21.02
2022-08-12T06:03:33.658Z,21.16
2022-08-12T06:05:07.933Z,21.27
2022-08-12T06:06:42.643Z,21.34
2022-08-12T06:08:16.367Z,21.36
2022-08-12T06:09:48.219Z,21.42
2022-08-12T06:11:20.894Z,21.47
2022-08-12T06:12:54.257Z,21.55
2022-08-12T06:14:26.467Z,21.64
2022-08-12T06:16:00.292Z,21.72
2022-08-12T06:17:32.504Z,21.82
2022-08-12T06:19:04.757Z,21.91
2022-08-12T06:20:37.273Z,21.98
2022-08-12T06:22:09.481Z,22.08
2022-08-12T06:23:42.862Z,22.17
2022-08-12T06:25:21.647Z,22.25
2022-08-12T06:26:54.324Z,22.29
2022-08-12T06:28:26.389Z,22.32
2022-08-12T06:30:08.388Z,22.35
2022-08-12T06:31:44.015Z,22.36
2022-08-12T06:33:21.438Z,22.40
2022-08-12T06:35:24.058Z,22.46
2022-08-12T06:36:49.412Z,22.51
2022-08-12T06:38:22.594Z,22.59
2022-08-12T06:39:54.689Z,22.65
2022-08-12T06:42:04.965Z,22.74
2022-08-12T06:44:06.803Z,22.85
2022-08-12T06:45:45.503Z,22.94
2022-08-12T06:47:20.065Z,23.02
2022-08-12T06:48:56.226Z,23.13
2022-08-12T06:50:31.493Z,23.20
2022-08-12T09:15:35.351Z,28.51
2022-08-12T09:17:08.596Z,28.56
2022-08-12T09:18:41.444Z,28.61
2022-08-12T09:20:16.478Z,28.64
2022-08-12T09:21:54.563Z,28.64
2022-08-12T09:24:00.312Z,28.68
2022-08-12T09:25:25.283Z,28.66
2022-08-12T09:26:58.996Z,28.71
2022-08-12T09:28:33.236Z,28.75
2022-08-12T09:30:10.553Z,28.80
2022-08-12T09:32:07.821Z,28.78
2022-08-12T09:34:28.171Z,28.86
2022-08-12T09:35:42.896Z,28.97
2022-08-12T09:37:20.036Z,28.98
2022-08-12T09:38:58.866Z,28.97
2022-08-12T09:42:07.686Z,28.98
2022-08-12T09:42:54.355Z,28.94
2022-08-12T09:45:18.305Z,29.00
2022-08-12T09:46:48.764Z,28.99
2022-08-12T09:48:21.965Z,28.96
2022-08-12T09:49:58.699Z,28.99
2022-08-12T09:51:38.282Z,29.04
2022-08-12T09:53:29.089Z,29.08
2022-08-12T09:55:03.661Z,29.07
2022-08-12T09:56:58.399Z,29.09
2022-08-12T09:58:58.936Z,29.16
2022-08-12T10:00:29.249Z,29.05
2022-08-12T10:02:43.866Z,29.10
2022-08-12T10:04:03.936Z,29.10
2022-08-12T10:06:26.487Z,29.08
2022-08-12T10:07:40.631Z,29.01
2022-08-12T10:09:14.497Z,28.98
2022-08-12T10:11:07.754Z,28.94
2022-08-12T10:13:09.657Z,28.89
2022-08-12T10:14:49.999Z,28.90
2022-08-12T10:16:38.724Z,28.94
2022-08-12T10:18:13.188Z,29.01
2022-08-12T10:19:51.895Z,29.02
2022-08-12T10:21:39.095Z,29.05
2022-08-12T10:23:12.565Z,28.96
2022-08-12T10:25:17.156Z,28.97
2022-08-12T10:27:14.144Z,28.89
2022-08-12T10:30:01.376Z,28.81
2022-08-12T10:31:01.387Z,28.89
2022-08-12T10:32:44.687Z,28.95
2022-08-12T10:34:26.069Z,29.02
2022-08-12T10:36:00.417Z,29.13
2022-08-12T10:38:37.835Z,29.20
2022-08-12T10:40:01.212Z,29.27
2022-08-12T10:41:57.855Z,29.25
2022-08-12T10:43:54.072Z,29.19
2022-08-12T10:45:30.334Z,29.06
2022-08-12T10:47:25.905Z,29.06
2022-08-12T10:49:06.987Z,28.99
2022-08-12T10:51:01.539Z,28.96
2022-08-12T10:52:39.350Z,28.93
2022-08-12T10:54:14.616Z,28.98
2022-08-12T10:55:48.987Z,29.08
2022-08-12T10:57:50.354Z,29.13
2022-08-12T11:00:31.744Z,29.22
2022-08-12T11:04:14.279Z,29.23
2022-08-12T11:04:27.481Z,29.22
2022-08-12T11:07:05.357Z,29.12
2022-08-12T11:07:05.357Z,29.15
2022-08-12T11:08:46.488Z,29.17
2022-08-12T11:10:19.950Z,29.21
2022-08-12T11:12:35.094Z,29.34
2022-08-12T11:13:53.102Z,29.48
2022-08-12T11:16:19.827Z,29.58
2022-08-12T11:17:42.845Z,29.66
2022-08-12T11:19:17.697Z,29.82
2022-08-12T11:20:57.970Z,29.89
2022-08-12T11:22:30.575Z,29.93
2022-08-12T11:24:05.695Z,29.98
2022-08-12T11:25:55.927Z,30.01
2022-08-12T11:27:31.196Z,30.11
2022-08-12T11:29:05.896Z,30.19
2022-08-12T11:30:54.934Z,30.15
2022-08-12T11:32:27.700Z,30.15
2022-08-12T11:34:05.996Z,30.18
2022-08-12T11:35:57.681Z,30.32
2022-08-12T11:37:57.998Z,30.38
2022-08-12T11:41:27.864Z,30.49
2022-08-12T11:43:19.176Z,30.51
2022-08-12T11:44:52.817Z,30.56
2022-08-12T11:46:25.141Z,30.65
2022-08-12T11:48:00.056Z,30.62
2022-08-12T11:49:32.850Z,30.69
2022-08-12T11:51:06.380Z,30.62
2022-08-12T11:52:56.809Z,30.63
2022-08-12T11:54:30.754Z,30.62
2022-08-12T11:56:05.441Z,30.67
2022-08-12T11:58:19.762Z,30.67
2022-08-12T12:02:02.129Z,30.39
2022-08-12T12:03:44.012Z,30.44
2022-08-12T12:05:20.284Z,30.51
2022-08-12T12:06:54.395Z,30.81
2022-08-12T12:08:38.697Z,30.93
2022-08-12T12:10:20.685Z,31.07
2022-08-12T12:11:53.389Z,31.08
2022-08-12T12:14:07.271Z,31.12
2022-08-12T12:15:25.168Z,30.85
2022-08-12T12:17:10.368Z,30.79
2022-08-12T12:18:43.186Z,30.86
2022-08-12T12:20:15.793Z,30.82
2022-08-12T12:21:49.567Z,30.84
2022-08-12T12:23:28.806Z,30.92
2022-08-12T12:25:13.285Z,30.88
2022-08-12T12:26:46.342Z,30.70
2022-08-12T12:28:37.906Z,30.63
2022-08-12T12:30:18.007Z,30.55
2022-08-12T12:32:11.379Z,30.46
2022-08-12T12:33:57.567Z,30.43
2022-08-12T12:36:19.968Z,30.40
2022-08-12T12:37:58.837Z,30.34
2022-08-12T12:39:16.863Z,30.26
2022-08-12T12:40:50.729Z,30.22
2022-08-12T12:42:45.428Z,30.20
2022-08-12T12:44:25.684Z,30.19
2022-08-12T12:46:02.992Z,30.22
2022-08-12T12:47:35.283Z,30.26
2022-08-12T12:49:11.213Z,30.34
2022-08-12T12:51:12.914Z,30.45
2022-08-12T12:52:45.272Z,30.56
2022-08-12T12:54:18.890Z,30.63
2022-08-12T12:55:53.835Z,30.73
2022-08-12T12:57:54.170Z,30.72
2022-08-12T12:59:56.391Z,30.70
2022-08-12T13:01:28.066Z,30.63
2022-08-12T13:03:04.227Z,30.59
2022-08-12T13:04:37.888Z,30.55
2022-08-12T13:06:10.571Z,30.44
2022-08-12T13:07:49.311Z,30.53
2022-08-12T13:09:27.415Z,30.64
2022-08-12T13:11:09.191Z,30.67
2022-08-12T13:12:43.393Z,30.75
2022-08-12T13:14:28.659Z,30.74
2022-08-12T13:16:04.656Z,30.84
2022-08-12T13:18:02.997Z,30.93
2022-08-12T13:19:45.323Z,31.02
2022-08-12T13:21:32.868Z,30.99
2022-08-12T13:23:35.673Z,31.04
2022-08-12T13:25:01.961Z,31.06
2022-08-12T13:26:35.538Z,31.19
2022-08-12T13:28:22.321Z,31.25
2022-08-12T13:30:03.888Z,31.27
2022-08-12T13:32:02.005Z,31.35
2022-08-12T13:33:48.531Z,31.43
2022-08-12T13:35:33.691Z,31.48
2022-08-12T13:37:18.132Z,31.41
2022-08-12T13:38:54.663Z,31.30
2022-08-12T13:40:29.088Z,30.90
2022-08-12T13:42:01.289Z,30.75
2022-08-12T13:43:40.232Z,30.65
2022-08-12T13:45:14.258Z,30.59
2022-08-12T13:46:58.271Z,30.50
2022-08-12T13:48:37.536Z,30.54
2022-08-12T13:50:10.255Z,30.53
2022-08-12T13:51:54.203Z,30.55
2022-08-12T13:53:40.254Z,30.55
2022-08-12T13:55:22.122Z,30.53
2022-08-12T13:57:03.484Z,30.54
2022-08-12T13:58:52.494Z,30.55
2022-08-12T14:00:34.167Z,30.63
2022-08-12T14:02:13.763Z,30.70
2022-08-12T14:03:50.089Z,30.72
2022-08-12T14:05:31.287Z,30.82
2022-08-12T14:07:11.467Z,30.89
2022-08-12T14:08:44.718Z,30.86
2022-08-12T14:10:50.645Z,30.82
2022-08-12T14:12:24.217Z,30.69
2022-08-12T14:14:04.301Z,30.61
2022-08-12T14:15:47.776Z,30.53
2022-08-12T14:17:20.286Z,30.40
2022-08-12T14:18:55.222Z,30.30
2022-08-12T14:20:27.778Z,30.28
2022-08-12T14:22:05.059Z,30.23
2022-08-12T14:24:04.275Z,30.18
2022-08-12T14:25:40.817Z,30.09
2022-08-12T14:27:13.175Z,30.02
2022-08-12T14:28:57.785Z,29.95
2022-08-12T14:30:34.161Z,29.92
2022-08-12T14:32:07.981Z,29.96
2022-08-12T14:33:50.610Z,30.01
2022-08-12T14:35:24.511Z,30.03
2022-08-12T14:36:57.680Z,30.09
2022-08-12T14:38:32.377Z,30.18
2022-08-12T14:40:05.447Z,30.24
2022-08-12T14:41:48.473Z,30.33
2022-08-12T14:43:59.318Z,30.40
2022-08-12T14:45:45.171Z,30.44
2022-08-12T14:47:21.070Z,30.46
2022-08-12T14:48:55.052Z,30.44
2022-08-12T14:50:58.505Z,30.39
2022-08-12T14:53:12.214Z,30.20
2022-08-12T14:57:59.950Z,30.03
2022-08-12T14:59:57.763Z,29.99
2022-08-12T15:01:41.893Z,29.97
2022-08-12T15:03:15.825Z,29.97
2022-08-12T15:05:03.564Z,29.97
2022-08-12T15:06:39.332Z,29.96
2022-08-12T15:08:28.301Z,29.94
2022-08-12T15:10:01.634Z,29.90
2022-08-12T15:11:54.984Z,29.87
2022-08-12T15:13:27.146Z,29.79
2022-08-12T15:15:00.290Z,29.78
2022-08-12T15:16:32.753Z,29.78
2022-08-12T15:18:07.054Z,29.76
2022-08-12T15:20:31.285Z,29.75
2022-08-12T15:22:39.648Z,29.70
2022-08-12T15:23:45.716Z,29.72
2022-08-12T15:25:27.876Z,29.67
2022-08-12T15:27:01.319Z,29.65
2022-08-12T15:28:53.969Z,29.61
2022-08-12T15:30:30.359Z,29.56
2022-08-12T15:32:10.643Z,29.49
2022-08-12T15:33:50.610Z,29.43
2022-08-12T15:35:24.905Z,29.38
2022-08-12T15:36:59.166Z,29.36
2022-08-12T15:38:32.058Z,29.33
2022-08-12T15:40:07.041Z,29.29
2022-08-12T15:41:50.081Z,29.25
2022-08-12T15:43:51.795Z,29.23
2022-08-12T15:45:21.300Z,29.19
2022-08-12T15:46:56.083Z,29.17
2022-08-12T15:48:30.507Z,29.11
2022-08-12T15:50:03.036Z,29.07
2022-08-12T15:51:58.803Z,28.99
2022-08-12T15:53:54.626Z,28.89
2022-08-12T15:55:33.429Z,28.82
2022-08-12T15:57:08.339Z,28.77
2022-08-12T15:58:43.548Z,28.73
2022-08-12T16:00:31.527Z,28.65
2022-08-12T16:02:05.005Z,28.61
2022-08-12T16:03:45.977Z,28.57
2022-08-12T16:06:11.079Z,28.52
2022-08-12T16:07:29.864Z,28.46
2022-08-12T16:09:05.169Z,28.41
2022-08-12T16:10:42.884Z,28.37
2022-08-12T16:12:16.419Z,28.33
2022-08-12T16:13:54.618Z,28.29
2022-08-12T16:15:29.542Z,28.27
2022-08-12T16:17:09.063Z,28.21
2022-08-12T16:18:47.784Z,28.18
2022-08-12T16:20:33.208Z,28.14
2022-08-12T16:22:11.435Z,28.08
2022-08-12T16:23:55.321Z,28.04
2022-08-12T16:26:02.751Z,27.98
2022-08-12T16:27:30.280Z,27.92
2022-08-12T16:29:15.225Z,27.88
2022-08-12T16:30:50.179Z,27.81
2022-08-12T16:32:24.193Z,27.75
2022-08-12T16:34:04.314Z,27.64
2022-08-12T16:35:45.838Z,27.54
2022-08-12T16:37:21.593Z,27.42
2022-08-12T16:39:05.358Z,27.35
2022-08-12T16:40:39.754Z,27.32
2022-08-12T16:42:23.114Z,27.24
2022-08-12T16:44:01.359Z,27.19
2022-08-12T16:46:04.411Z,27.11
2022-08-12T16:47:58.421Z,27.00
2022-08-12T16:49:25.268Z,26.91
2022-08-12T16:50:58.470Z,26.87
2022-08-12T16:52:30.890Z,26.78
2022-08-12T16:54:03.725Z,26.74
2022-08-12T16:55:42.173Z,26.71
2022-08-12T16:57:15.254Z,26.65
2022-08-12T16:58:48.727Z,26.63
2022-08-12T17:00:25.375Z,26.61
2022-08-12T17:01:58.593Z,26.56
2022-08-12T17:03:38.135Z,26.56
2022-08-12T17:05:19.812Z,26.50
2022-08-12T17:06:54.005Z,26.46
2022-08-12T17:08:28.920Z,26.39
2022-08-12T17:10:01.950Z,26.29
2022-08-12T17:11:34.850Z,26.22
2022-08-12T17:13:11.347Z,26.12
2022-08-12T17:14:47.343Z,26.03
2022-08-12T17:16:30.017Z,25.96
2022-08-12T17:18:39.490Z,25.87
2022-08-12T17:20:34.948Z,25.78
2022-08-12T17:22:02.048Z,25.67
2022-08-12T17:23:48.335Z,25.58
2022-08-12T17:25:26.585Z,25.51
2022-08-12T17:27:09.586Z,25.41
2022-08-12T17:28:52.372Z,25.30
2022-08-12T17:30:28.076Z,25.21
2022-08-12T17:32:03.158Z,25.13
2022-08-12T17:33:39.179Z,25.04
2022-08-12T17:35:36.802Z,24.98
2022-08-12T17:37:10.759Z,24.83
2022-08-12T17:38:50.837Z,24.72
2022-08-12T17:40:35.939Z,24.59
2022-08-12T17:42:32.840Z,24.46
2022-08-12T17:44:04.045Z,24.35
2022-08-12T17:45:47.366Z,24.26
2022-08-12T17:47:24.931Z,24.14
2022-08-12T17:49:19.506Z,24.04
2022-08-12T17:51:09.307Z,23.95
2022-08-12T17:52:47.663Z,23.86
2022-08-12T17:54:26.492Z,23.82
2022-08-12T17:55:58.984Z,23.72
2022-08-12T17:57:31.462Z,23.66
2022-08-12T17:59:04.100Z,23.61
2022-08-12T18:00:44.062Z,23.55
2022-08-12T18:02:25.562Z,23.47
2022-08-12T18:04:21.595Z,23.40
2022-08-12T18:06:00.773Z,23.32
2022-08-12T18:07:35.721Z,23.22
2022-08-12T18:09:09.531Z,23.17
2022-08-12T18:11:11.954Z,23.10
2022-08-12T18:12:52.266Z,22.95
2022-08-12T18:16:06.709Z,22.80
2022-08-12T18:17:47.162Z,22.74
2022-08-12T18:19:20.024Z,22.67
2022-08-12T18:20:52.703Z,22.62
2022-08-12T18:22:30.391Z,22.60
2022-08-12T18:24:04.019Z,22.54
2022-08-12T18:26:17.682Z,22.49
2022-08-12T18:27:50.499Z,22.40
2022-08-12T18:29:43.483Z,22.31
2022-08-12T18:31:18.257Z,22.27
2022-08-12T18:32:59.459Z,22.19
2022-08-12T18:34:38.586Z,22.16
2022-08-12T18:36:13.008Z,22.13
2022-08-12T18:37:46.580Z,22.06
2022-08-12T18:39:20.321Z,22.05
2022-08-12T18:41:21.722Z,22.02
2022-08-12T18:42:57.136Z,21.96
2022-08-12T18:44:33.378Z,21.91
2022-08-12T18:46:11.310Z,21.87
2022-08-12T18:47:49.790Z,21.78
2022-08-12T18:49:39.300Z,21.74
2022-08-12T18:51:21.862Z,21.67
2022-08-12T18:53:08.060Z,21.58
2022-08-12T18:55:08.106Z,21.51
2022-08-12T18:56:41.144Z,21.46
2022-08-12T18:58:15.138Z,21.43
2022-08-12T19:00:01.449Z,21.42
2022-08-12T19:02:20.926Z,21.35
2022-08-12T19:03:39.489Z,21.31
2022-08-12T19:05:14.577Z,21.29
2022-08-12T19:06:47.297Z,21.26
2022-08-12T19:08:24.979Z,21.20
2022-08-12T19:09:59.966Z,21.18
2022-08-12T19:11:56.605Z,21.13
2022-08-12T19:13:49.381Z,21.10
2022-08-12T19:15:21.961Z,21.05
2022-08-12T19:16:58.261Z,21.03
2022-08-12T19:18:32.968Z,20.98
2022-08-12T19:20:07.473Z,20.90
2022-08-12T19:21:56.671Z,20.80
2022-08-12T19:23:35.001Z,20.72
2022-08-12T19:26:01.241Z,20.68
2022-08-12T19:27:21.937Z,20.63
2022-08-12T19:28:57.974Z,20.60
2022-08-12T19:30:52.570Z,20.58
2022-08-12T19:32:27.141Z,20.55
2022-08-12T19:34:26.113Z,20.51
2022-08-12T19:36:07.421Z,20.51
2022-08-12T19:38:06.312Z,20.53
2022-08-12T19:40:08.108Z,20.43
2022-08-12T19:41:43.004Z,20.40
2022-08-12T19:43:41.006Z,20.33
2022-08-12T19:45:22.220Z,20.32
2022-08-12T19:46:55.868Z,20.28
2022-08-12T19:48:32.672Z,20.18
2022-08-12T19:50:06.875Z,20.12
2022-08-12T19:51:47.994Z,20.06
2022-08-12T19:53:25.288Z,19.92
2022-08-12T19:55:01.543Z,19.82
2022-08-12T19:56:35.028Z,19.72
2022-08-12T19:58:08.258Z,19.66
2022-08-12T20:00:03.744Z,19.60
2022-08-12T20:02:01.511Z,19.56
2022-08-12T20:03:39.246Z,19.55
2022-08-12T20:06:03.873Z,19.54
2022-08-12T20:07:23.134Z,19.54
2022-08-12T20:08:57.220Z,19.52
2022-08-12T20:10:35.064Z,19.54
2022-08-12T20:12:18.040Z,19.50
2022-08-12T20:14:00.318Z,19.47
2022-08-12T20:15:43.241Z,19.45
2022-08-12T20:17:23.523Z,19.42
2022-08-12T20:19:01.573Z,19.42
2022-08-12T20:20:35.428Z,19.42
2022-08-12T20:22:08.828Z,19.41
2022-08-12T20:23:59.597Z,19.42
2022-08-12T20:25:52.648Z,19.42
2022-08-12T20:28:04.825Z,19.48
2022-08-12T20:29:21.862Z,19.48
2022-08-12T20:30:59.587Z,19.49
2022-08-12T20:32:47.854Z,19.52
2022-08-12T20:34:22.665Z,19.53
2022-08-12T20:36:06.883Z,19.57
2022-08-12T20:38:06.178Z,19.59
2022-08-12T20:39:56.603Z,19.64
2022-08-12T20:41:32.568Z,19.69
2022-08-12T20:43:06.537Z,19.73
2022-08-12T20:44:41.173Z,19.75
2022-08-12T20:46:14.063Z,19.77
2022-08-12T20:47:55.792Z,19.77
2022-08-12T20:49:40.181Z,19.78
2022-08-12T20:51:18.983Z,19.80
2022-08-12T20:52:51.565Z,19.82
2022-08-12T20:54:32.510Z,19.83
2022-08-12T20:56:30.615Z,19.85
2022-08-12T20:58:09.981Z,19.84
2022-08-12T20:59:48.094Z,19.83
2022-08-12T21:01:28.827Z,19.87
2022-08-12T21:03:25.377Z,19.89
2022-08-12T21:05:19.758Z,19.92
2022-08-12T21:07:08.201Z,19.96
2022-08-12T21:08:42.340Z,19.95
2022-08-12T21:10:14.818Z,19.94
2022-08-12T21:11:50.817Z,19.94
2022-08-12T21:13:23.931Z,19.95
2022-08-12T21:15:16.574Z,19.97
2022-08-12T21:16:54.924Z,19.95
2022-08-12T21:18:28.982Z,19.94
2022-08-12T21:20:06.783Z,19.96
2022-08-12T21:21:50.546Z,19.94
2022-08-12T21:23:23.563Z,19.92
2022-08-12T21:24:56.508Z,19.93
2022-08-12T21:26:29.103Z,19.94
2022-08-12T21:28:01.383Z,19.93
2022-08-12T21:29:40.062Z,19.94
2022-08-12T21:32:35.918Z,19.97
2022-08-12T21:33:16.930Z,19.97
2022-08-12T21:34:49.647Z,20.01
2022-08-12T21:36:34.841Z,20.04
2022-08-12T21:38:08.508Z,20.05
2022-08-12T21:39:40.583Z,20.07
2022-08-12T21:41:24.578Z,20.10
2022-08-12T21:42:56.617Z,20.12
2022-08-12T21:45:46.319Z,20.13
2022-08-12T21:46:34.727Z,20.14
2022-08-12T21:48:11.872Z,20.15
2022-08-12T21:49:55.680Z,20.12
2022-08-12T21:51:49.229Z,20.14
2022-08-12T21:53:22.971Z,20.13
2022-08-12T21:55:19.930Z,20.13
2022-08-12T21:56:53.645Z,20.12
2022-08-12T21:58:26.093Z,20.11
2022-08-12T21:59:58.310Z,20.08
2022-08-12T22:01:30.517Z,20.07
2022-08-12T22:04:02.727Z,20.07
2022-08-12T22:05:39.556Z,20.05
2022-08-12T22:07:18.589Z,20.05
2022-08-12T22:08:59.425Z,20.07
2022-08-12T22:10:34.152Z,20.04
2022-08-12T22:12:28.177Z,20.02
2022-08-12T22:14:06.973Z,20.00
2022-08-12T22:15:40.721Z,19.99
2022-08-12T22:17:50.527Z,20.03
2022-08-12T22:19:26.805Z,20.04
2022-08-12T22:20:59.063Z,20.06
2022-08-12T22:22:42.558Z,20.00
2022-08-12T22:24:26.700Z,19.93
2022-08-12T22:26:05.404Z,19.93
2022-08-12T22:28:01.980Z,19.93
2022-08-12T22:29:59.515Z,19.91
2022-08-12T22:31:33.771Z,19.91
2022-08-12T22:33:15.753Z,19.93
2022-08-12T22:35:10.325Z,19.92
2022-08-12T22:36:55.839Z,19.93
2022-08-12T22:38:33.769Z,19.94
2022-08-12T22:40:06.263Z,19.97
2022-08-12T22:41:57.755Z,19.97
2022-08-12T22:43:58.955Z,20.00
2022-08-12T22:45:56.453Z,20.01
2022-08-12T22:47:53.535Z,20.00
2022-08-12T22:49:37.124Z,20.04
2022-08-12T22:51:24.060Z,20.05
2022-08-12T22:53:15.679Z,20.05
2022-08-12T22:55:02.561Z,20.06
2022-08-12T22:56:36.519Z,20.06
2022-08-12T22:58:12.405Z,20.08
2022-08-12T22:59:55.305Z,20.07
2022-08-12T23:02:00.936Z,20.08
2022-08-12T23:03:49.226Z,20.08
2022-08-12T23:05:16.971Z,20.07
2022-08-12T23:06:51.615Z,20.11
2022-08-12T23:08:29.609Z,20.10
2022-08-12T23:10:02.444Z,20.12
2022-08-12T23:11:40.563Z,20.12
2022-08-12T23:13:43.776Z,20.15
2022-08-12T23:15:16.438Z,20.17
2022-08-12T23:16:52.384Z,20.17
2022-08-12T23:18:33.317Z,20.16
2022-08-12T23:20:06.232Z,20.15
2022-08-12T23:22:05.131Z,20.18
2022-08-12T23:24:09.623Z,20.20
2022-08-12T23:25:55.178Z,20.21
2022-08-12T23:27:51.213Z,20.19
2022-08-12T23:29:30.175Z,20.20
2022-08-12T23:31:15.713Z,20.22
2022-08-12T23:32:54.063Z,20.26
2022-08-12T23:34:38.401Z,20.15
2022-08-12T23:36:12.653Z,20.24
2022-08-12T23:37:53.908Z,20.20
2022-08-12T23:40:15.582Z,20.18
2022-08-12T23:41:25.643Z,20.17
2022-08-12T23:43:01.520Z,20.12
2022-08-12T23:44:36.264Z,20.12
2022-08-12T23:46:19.415Z,20.11
2022-08-12T23:47:55.945Z,20.12
2022-08-12T23:49:57.571Z,20.13
2022-08-12T23:51:27.073Z,20.19
2022-08-12T23:53:17.005Z,20.18
2022-08-12T23:54:58.280Z,20.18
2022-08-12T23:56:34.316Z,20.19
2022-08-12T23:58:21.510Z,20.18
